Time;durP1;ratioP1;P1;durP2;ratioP2;P2;SDS_P1;SDS_P2;PMS_P1;PMS_P2;Temp;Humidity;BMP_temperature;BMP_pressure;BME280_temperature;BME280_humidity;BME280_pressure;Samples;Min_cycle;Max_cycle;Signal;HPM_P1;HPM_P2
2021/09/08 00:00:38;;;;;;;59.87;54.67;;;;;;;17.70;100.00;101712.38;1971887;73;31045;-71
2021/09/08 00:06:03;;;;;;;61.17;55.97;;;;;;;17.64;100.00;101715.02;1971672;72;33117;-72
2021/09/08 00:11:28;;;;;;;67.27;61.10;;;;;;;17.74;100.00;101704.98;1971882;73;31511;-71
2021/09/08 00:16:52;;;;;;;58.00;52.77;;;;;;;17.69;100.00;101705.65;1971905;73;31100;-73
2021/09/08 00:22:17;;;;;;;65.80;59.80;;;;;;;17.62;100.00;101696.81;1971616;73;30984;-71
2021/09/08 00:27:41;;;;;;;70.00;63.27;;;;;;;17.49;100.00;101693.39;1971939;73;31472;-71
2021/09/08 00:33:07;;;;;;;72.53;65.37;;;;;;;17.50;100.00;101689.45;1971683;73;31131;-72
2021/09/08 00:38:31;;;;;;;68.63;61.93;;;;;;;17.47;100.00;101685.83;1971914;73;33489;-71
2021/09/08 00:43:56;;;;;;;70.27;63.57;;;;;;;17.62;100.00;101686.98;1971713;73;31121;-70
2021/09/08 00:49:21;;;;;;;68.23;61.63;;;;;;;17.47;100.00;101682.45;1971720;73;31012;-71
2021/09/08 00:54:50;;;;;;;67.90;61.57;;;;;;;17.26;100.00;101670.80;1971846;73;30983;-71
2021/09/08 01:00:17;;;;;;;73.63;66.33;;;;;;;17.29;100.00;101670.73;1971816;73;33487;-72
2021/09/08 01:05:41;;;;;;;83.27;75.07;;;;;;;17.24;100.00;101666.64;1971861;73;31067;-71
2021/09/08 01:11:07;;;;;;;79.77;71.77;;;;;;;17.35;100.00;101659.67;1971733;73;31080;-72
2021/09/08 01:16:32;;;;;;;76.63;69.23;;;;;;;17.35;100.00;101658.84;1971960;73;33362;-70
2021/09/08 01:21:59;;;;;;;80.47;72.23;;;;;;;17.34;100.00;101659.41;1971863;73;31477;-71
2021/09/08 01:27:26;;;;;;;82.57;74.20;;;;;;;17.41;100.00;101658.44;1971632;73;31017;-70
2021/09/08 01:32:51;;;;;;;83.40;75.07;;;;;;;17.39;100.00;101654.26;1971865;73;33436;-70
2021/09/08 01:38:18;;;;;;;82.67;74.23;;;;;;;17.27;100.00;101650.56;1971676;73;33064;-72
2021/09/08 01:43:44;;;;;;;82.67;74.20;;;;;;;17.29;100.00;101649.67;1971649;73;30953;-72
2021/09/08 01:49:15;;;;;;;83.77;75.17;;;;;;;17.30;100.00;101646.56;1971692;73;31035;-72
2021/09/08 01:54:39;;;;;;;84.60;76.30;;;;;;;17.18;100.00;101651.86;1971813;73;33453;-71
2021/09/08 02:00:05;;;;;;;84.93;76.17;;;;;;;17.05;100.00;101651.27;1971726;73;32919;-71
2021/09/08 02:05:30;;;;;;;83.33;74.60;;;;;;;17.19;100.00;101649.89;1971801;73;33444;-70
2021/09/08 02:10:54;;;;;;;82.10;73.47;;;;;;;17.12;100.00;101650.28;1971779;73;33497;-72
2021/09/08 02:16:21;;;;;;;84.70;75.83;;;;;;;17.05;100.00;101645.66;1971891;73;30946;-72
2021/09/08 02:21:45;;;;;;;88.43;79.40;;;;;;;16.97;100.00;101637.95;1971857;73;31089;-72
2021/09/08 02:27:11;;;;;;;85.70;76.83;;;;;;;17.16;100.00;101632.23;1971871;73;31510;-71
2021/09/08 02:32:35;;;;;;;89.57;80.13;;;;;;;17.07;100.00;101626.51;1971844;73;31051;-70
2021/09/08 02:38:01;;;;;;;90.57;81.27;;;;;;;16.99;100.00;101615.16;1971664;73;31030;-70
2021/09/08 02:43:25;;;;;;;89.77;80.57;;;;;;;16.93;100.00;101603.22;1971629;73;30946;-72
2021/09/08 02:48:50;;;;;;;87.93;78.83;;;;;;;16.93;100.00;101600.98;1971879;73;33410;-70
2021/09/08 02:54:15;;;;;;;92.53;82.87;;;;;;;16.69;100.00;101595.52;1971631;73;32970;-71
2021/09/08 02:59:39;;;;;;;93.53;83.97;;;;;;;16.82;100.00;101589.94;1971687;73;31015;-71
2021/09/08 03:05:23;;;;;;;92.83;83.23;;;;;;;16.80;100.00;101581.58;2016007;71;31421;-72
2021/09/08 03:10:49;;;;;;;91.43;81.53;;;;;;;16.66;100.00;101573.70;1971641;73;30929;-71
2021/09/08 03:16:16;;;;;;;96.80;86.53;;;;;;;16.83;100.00;101564.12;1971796;73;31050;-72
2021/09/08 03:21:40;;;;;;;96.10;85.83;;;;;;;16.76;100.00;101553.31;1966713;71;30963;-71
2021/09/08 03:27:05;;;;;;;96.17;86.20;;;;;;;16.72;100.00;101550.03;1971804;73;31051;-71
2021/09/08 03:32:30;;;;;;;100.40;89.67;;;;;;;16.74;100.00;101542.95;1971611;73;33167;-71
2021/09/08 03:37:54;;;;;;;100.97;89.40;;;;;;;16.66;100.00;101538.06;1971619;72;32989;-72
2021/09/08 03:43:19;;;;;;;101.03;89.43;;;;;;;16.61;100.00;101531.70;1971630;73;33063;-72
2021/09/08 03:48:46;;;;;;;103.53;90.30;;;;;;;16.61;100.00;101528.91;1971649;73;33041;-72
2021/09/08 03:54:11;;;;;;;101.53;90.20;;;;;;;16.56;100.00;101515.77;1971803;73;31577;-71
2021/09/08 03:59:36;;;;;;;106.00;90.63;;;;;;;16.47;100.00;101521.86;1971955;73;31007;-72
2021/09/08 04:05:00;;;;;;;102.13;91.30;;;;;;;16.38;100.00;101523.14;1971701;73;32975;-72
2021/09/08 04:10:25;;;;;;;105.00;93.30;;;;;;;16.43;100.00;101524.19;1971824;73;33415;-70
2021/09/08 04:15:50;;;;;;;107.80;91.27;;;;;;;16.61;100.00;101521.89;1971906;73;33377;-70
2021/09/08 04:21:14;;;;;;;97.50;86.30;;;;;;;16.73;100.00;101512.39;1968837;71;31057;-70
2021/09/08 04:26:38;;;;;;;101.43;86.47;;;;;;;16.73;100.00;101508.19;1971852;73;31030;-72
2021/09/08 04:32:04;;;;;;;99.17;88.37;;;;;;;16.37;100.00;101508.85;1971886;73;31504;-72
2021/09/08 04:37:29;;;;;;;103.20;91.83;;;;;;;16.39;100.00;101503.75;1971712;73;32914;-72
2021/09/08 04:42:54;;;;;;;105.17;93.40;;;;;;;16.34;100.00;101502.44;1971716;73;32965;-72
2021/09/08 04:48:18;;;;;;;99.53;87.77;;;;;;;16.40;100.00;101501.22;1971887;73;30961;-70
2021/09/08 04:53:44;;;;;;;104.87;92.90;;;;;;;16.24;100.00;101494.80;1971909;73;33435;-72
2021/09/08 04:59:08;;;;;;;102.77;89.33;;;;;;;16.21;100.00;101482.80;1971637;73;32923;-72
2021/09/08 05:04:33;;;;;;;95.93;85.53;;;;;;;15.97;100.00;101473.11;1971707;73;33018;-70
2021/09/08 05:09:57;;;;;;;99.17;88.47;;;;;;;16.11;100.00;101469.79;1971643;73;31037;-70
2021/09/08 05:15:22;;;;;;;96.10;85.60;;;;;;;16.06;100.00;101460.63;1971649;73;33056;-70
2021/09/08 05:20:46;;;;;;;96.03;85.90;;;;;;;16.02;100.00;101455.38;1970968;73;31500;-70
2021/09/08 05:26:30;;;;;;;100.17;89.13;;;;;;;16.08;100.00;101456.97;2016054;71;31436;-71
2021/09/08 05:31:55;;;;;;;97.17;86.60;;;;;;;16.06;100.00;101448.02;1971844;73;31584;-70
2021/09/08 05:37:19;;;;;;;95.20;84.77;;;;;;;15.93;100.00;101448.25;1971652;73;32896;-70
2021/09/08 05:42:46;;;;;;;99.83;88.10;;;;;;;16.15;100.00;101449.81;1971876;73;33467;-70
2021/09/08 05:48:11;;;;;;;106.23;93.87;;;;;;;16.23;100.00;101446.87;1971688;73;32990;-70
2021/09/08 05:53:36;;;;;;;98.33;87.47;;;;;;;16.16;100.00;101437.47;1971658;73;31038;-72
2021/09/08 05:59:02;;;;;;;106.67;95.23;;;;;;;16.12;100.00;101437.00;1971627;73;32911;-69
2021/09/08 06:04:27;;;;;;;104.47;93.30;;;;;;;16.20;100.00;101431.51;1971809;73;33378;-73
2021/09/08 06:09:51;;;;;;;97.20;87.17;;;;;;;16.11;100.00;101447.94;1971659;73;32919;-71
2021/09/08 06:15:20;;;;;;;102.97;91.13;;;;;;;16.25;100.00;101448.81;1900143;75;33158;-70
2021/09/08 06:20:45;;;;;;;105.00;92.50;;;;;;;16.54;100.00;101446.55;1971614;73;31713;-72
2021/09/08 06:26:09;;;;;;;101.67;90.57;;;;;;;16.46;100.00;101463.27;1971820;72;30993;-70
2021/09/08 06:31:34;;;;;;;108.40;89.23;;;;;;;16.62;100.00;101440.81;1971645;73;31167;-70
2021/09/08 06:37:02;;;;;;;100.80;89.73;;;;;;;16.87;100.00;101447.30;1971635;73;31221;-72
2021/09/08 06:42:27;;;;;;;101.07;88.27;;;;;;;16.76;100.00;101476.72;1971822;73;33521;-70
2021/09/08 06:47:51;;;;;;;102.53;89.67;;;;;;;17.03;100.00;101466.06;1971889;73;33365;-70
2021/09/08 06:53:16;;;;;;;102.40;91.37;;;;;;;17.17;100.00;101469.09;1971868;73;31458;-72
2021/09/08 06:58:40;;;;;;;103.53;92.07;;;;;;;17.44;100.00;101458.38;1971586;73;31084;-70
2021/09/08 07:04:06;;;;;;;98.93;88.23;;;;;;;17.58;100.00;101460.61;1971860;73;33407;-70
2021/09/08 07:09:31;;;;;;;97.80;86.80;;;;;;;17.64;100.00;101463.55;1971851;73;32997;-70
2021/09/08 07:14:55;;;;;;;92.07;82.07;;;;;;;17.71;100.00;101453.28;1971756;73;31081;-70
2021/09/08 07:20:20;;;;;;;89.00;79.57;;;;;;;17.96;100.00;101445.61;1971676;73;32975;-71
2021/09/08 07:25:45;;;;;;;95.67;85.20;;;;;;;17.98;100.00;101450.33;1971668;73;33026;-76
2021/09/08 07:31:10;;;;;;;98.40;84.17;;;;;;;18.34;100.00;101451.63;1971743;73;31143;-72
2021/09/08 07:36:35;;;;;;;86.60;77.30;;;;;;;18.55;100.00;101442.07;1971901;73;30946;-78
2021/09/08 07:42:00;;;;;;;87.10;78.00;;;;;;;18.74;100.00;101439.81;1971717;73;31107;-73
2021/09/08 07:47:25;;;;;;;87.87;78.27;;;;;;;18.87;100.00;101447.31;1971648;73;31110;-73
2021/09/08 07:52:50;;;;;;;83.70;75.33;;;;;;;19.27;100.00;101451.47;1971844;73;31062;-78
2021/09/08 07:58:20;;;;;;;75.70;68.20;;;;;;;19.72;100.00;101437.37;1971911;73;31006;-76
2021/09/08 08:03:45;;;;;;;76.73;68.97;;;;;;;20.10;100.00;101425.36;1971793;73;30965;-78
2021/09/08 08:09:10;;;;;;;69.77;63.07;;;;;;;20.47;100.00;101423.77;1971803;73;31526;-76
2021/09/08 08:14:34;;;;;;;66.37;60.23;;;;;;;20.76;100.00;101418.15;1971723;73;30938;-78
2021/09/08 08:19:59;;;;;;;61.43;55.87;;;;;;;20.97;100.00;101417.61;1972148;73;30951;-81
2021/09/08 08:25:27;;;;;;;63.10;57.47;;;;;;;21.20;100.00;101408.28;1971670;73;30933;-71
2021/09/08 08:30:54;;;;;;;61.23;56.10;;;;;;;21.42;100.00;101394.39;1971878;73;33442;-71
2021/09/08 08:36:19;;;;;;;60.17;54.85;;;;;;;21.53;100.00;101379.48;1971863;73;31462;-71
2021/09/08 08:41:43;;;;;;;55.53;50.87;;;;;;;21.79;100.00;101370.17;1971726;73;31054;-76
2021/09/08 08:47:09;;;;;;;50.10;46.20;;;;;;;22.00;100.00;101358.82;1971672;73;30985;-75
2021/09/08 08:52:33;;;;;;;47.65;43.92;;;;;;;22.15;100.00;101346.84;1971848;73;30995;-76
2021/09/08 08:57:59;;;;;;;48.35;44.85;;;;;;;22.19;100.00;101339.89;1971918;73;31544;-76
2021/09/08 09:03:27;;;;;;;46.37;42.95;;;;;;;22.17;100.00;101332.33;1971809;73;30977;-70
2021/09/08 09:09:02;;;;;;;44.50;41.50;;;;;;;22.38;100.00;101330.22;1971850;73;31478;-70
2021/09/08 09:14:27;;;;;;;44.53;41.20;;;;;;;22.51;100.00;101321.13;1971693;73;31151;-75
2021/09/08 09:19:52;;;;;;;44.48;41.58;;;;;;;22.62;100.00;101332.23;1971625;72;31024;-78
2021/09/08 09:25:20;;;;;;;45.83;42.75;;;;;;;22.61;100.00;101338.48;1971824;73;30980;-76
2021/09/08 09:30:46;;;;;;;44.15;41.33;;;;;;;22.68;100.00;101331.63;1971664;73;30974;-75
2021/09/08 09:36:31;;;;;;;43.45;40.55;;;;;;;22.68;100.00;101328.80;1971690;73;31153;-70
2021/09/08 09:41:58;;;;;;;39.67;37.15;;;;;;;22.78;100.00;101310.53;1971864;73;30961;-70
2021/09/08 09:47:28;;;;;;;33.00;30.88;;;;;;;22.81;100.00;101313.22;1971884;73;31500;-76
2021/09/08 09:52:54;;;;;;;38.85;36.35;;;;;;;22.92;100.00;101309.56;1971750;73;31036;-75
2021/09/08 09:58:20;;;;;;;36.25;33.95;;;;;;;22.89;100.00;101306.62;1971654;73;30922;-76
2021/09/08 10:03:46;;;;;;;35.50;33.30;;;;;;;22.91;100.00;101307.91;1971656;73;30998;-76
2021/09/08 10:09:14;;;;;;;36.15;33.95;;;;;;;22.85;100.00;101291.53;1971898;73;31437;-70
2021/09/08 10:14:42;;;;;;;28.65;26.97;;;;;;;23.06;100.00;101287.92;1971927;73;31452;-72
2021/09/08 10:20:09;;;;;;;23.22;21.73;;;;;;;23.70;100.00;101273.60;1971830;72;31525;-70
2021/09/08 10:25:36;;;;;;;21.95;20.48;;;;;;;23.71;100.00;101265.89;1971658;73;31043;-74
2021/09/08 10:31:03;;;;;;;21.42;20.05;;;;;;;24.23;100.00;101259.98;1971742;72;30973;-72
2021/09/08 10:36:29;;;;;;;18.55;17.45;;;;;;;23.84;100.00;101256.94;1971906;73;31033;-73
2021/09/08 10:42:04;;;;;;;19.67;18.48;;;;;;;23.87;100.00;101251.14;1971715;73;31012;-74
2021/09/08 10:47:40;;;;;;;17.48;16.40;;;;;;;23.83;100.00;101228.95;1971781;73;31063;-75
2021/09/08 10:56:14;;;;;;;18.30;17.15;;;;;;;24.53;100.00;101220.53;2060946;69;30568;-75
2021/09/08 10:59:01;;;;;;;15.90;15.00;;;;;;;24.11;100.00;101235.34;1950460;73;24139;-75
2021/09/08 11:01:31;;;;;;;15.55;14.60;;;;;;;24.16;100.00;101234.27;2030588;71;24108;-77
2021/09/08 11:04:01;;;;;;;16.65;15.55;;;;;;;24.22;100.00;101213.73;2030468;71;24097;-76
2021/09/08 11:06:38;;;;;;;16.02;15.03;;;;;;;24.17;100.00;101216.87;2030621;71;24177;-76
2021/09/08 11:09:10;;;;;;;16.55;15.30;;;;;;;24.10;100.00;101210.97;2030416;71;24097;-77
2021/09/08 11:11:56;;;;;;;15.90;14.90;;;;;;;23.86;100.00;101212.02;2030477;70;24307;-72
2021/09/08 11:14:49;;;;;;;16.27;15.35;;;;;;;24.12;100.00;101205.77;2030461;70;24191;-77
2021/09/08 11:17:23;;;;;;;15.63;14.73;;;;;;;23.86;100.00;101204.92;2030532;71;24151;-77
2021/09/08 11:19:55;;;;;;;15.58;14.70;;;;;;;23.91;100.00;101200.39;2030532;71;24187;-77
2021/09/08 11:22:25;;;;;;;16.30;15.10;;;;;;;23.80;100.00;101210.63;2004294;71;24682;-72
2021/09/08 11:25:08;;;;;;;17.02;15.93;;;;;;;24.09;100.00;101198.59;1993672;72;24557;-72
2021/09/08 11:27:42;;;;;;;16.32;15.32;;;;;;;24.03;100.00;101200.88;1993529;72;24146;-72
2021/09/08 11:30:15;;;;;;;16.57;15.58;;;;;;;24.23;100.00;101208.28;1993507;72;24734;-77
2021/09/08 11:32:52;;;;;;;16.80;15.80;;;;;;;23.88;100.00;101207.38;1993533;72;24154;-72
2021/09/08 11:35:43;;;;;;;17.07;15.98;;;;;;;23.58;100.00;101204.98;1993719;72;24118;-71
2021/09/08 11:38:17;;;;;;;16.27;15.38;;;;;;;23.43;100.00;101204.39;1993513;72;24109;-73
2021/09/08 11:40:49;;;;;;;16.27;15.32;;;;;;;23.72;100.00;101197.45;1993622;72;24240;-72
2021/09/08 11:43:33;;;;;;;15.48;14.53;;;;;;;23.51;100.00;101201.97;1993635;72;24600;-72
2021/09/08 11:46:12;;;;;;;15.50;14.40;;;;;;;23.92;100.00;101196.34;1993434;72;24147;-72
2021/09/08 11:48:43;;;;;;;15.03;14.13;;;;;;;24.07;100.00;101193.27;1993396;72;24247;-78
2021/09/08 11:54:12;;;;;;;15.83;14.83;;;;;;;24.26;100.00;101179.14;1971850;73;31694;-71
2021/09/08 11:59:38;;;;;;;18.62;17.55;;;;;;;24.63;100.00;101184.45;1971802;73;31079;-77
2021/09/08 12:05:02;;;;;;;18.02;17.02;;;;;;;24.00;100.00;101171.20;1971807;73;31528;-72
2021/09/08 12:10:38;;;;;;;14.95;14.07;;;;;;;24.46;100.00;101172.33;1971661;73;30997;-73
2021/09/08 12:16:02;;;;;;;15.55;14.55;;;;;;;24.56;100.00;101179.42;1971709;73;31067;-73
2021/09/08 12:21:27;;;;;;;15.90;14.70;;;;;;;24.59;100.00;101170.17;1962623;73;31080;-73
2021/09/08 12:24:17;;;;;;;15.43;14.53;;;;;;;24.44;100.00;101174.70;1907089;75;24230;-75
2021/09/08 12:29:48;;;;;;;14.87;13.83;;;;;;;24.47;100.00;101165.44;1971782;73;31048;-73
2021/09/08 12:35:14;;;;;;;15.70;14.70;;;;;;;25.16;100.00;101165.08;1971921;73;31505;-75
2021/09/08 12:40:39;;;;;;;16.10;15.00;;;;;;;25.21;100.00;101155.42;1971798;73;31046;-76
2021/09/08 12:46:04;;;;;;;15.40;14.50;;;;;;;24.82;100.00;101154.61;1971720;73;31055;-79
2021/09/08 12:51:29;;;;;;;15.25;14.30;;;;;;;24.89;100.00;101159.07;1971794;73;31157;-76
2021/09/08 12:56:55;;;;;;;14.78;13.93;;;;;;;24.96;100.00;101158.38;1971894;73;31049;-78
2021/09/08 13:02:19;;;;;;;14.95;13.95;;;;;;;24.32;100.00;101142.78;1971766;73;31139;-78
2021/09/08 13:07:44;;;;;;;15.20;14.33;;;;;;;24.41;100.00;101122.09;1971620;73;30992;-70
2021/09/08 13:13:08;;;;;;;15.18;14.28;;;;;;;25.21;100.00;101109.92;1971903;73;30982;-70
2021/09/08 13:18:33;;;;;;;15.72;14.73;;;;;;;25.25;100.00;101111.64;1971759;73;31129;-75
2021/09/08 13:23:58;;;;;;;15.63;14.68;;;;;;;25.10;100.00;101092.69;1971699;73;31935;-70
2021/09/08 13:29:23;;;;;;;15.58;14.58;;;;;;;24.72;100.00;101078.52;1971687;73;30991;-78
2021/09/08 13:34:48;;;;;;;15.13;14.28;;;;;;;24.41;100.00;101079.50;1971790;73;31021;-76
2021/09/08 13:40:15;;;;;;;14.83;13.93;;;;;;;24.46;100.00;101070.09;1971836;73;31475;-76
2021/09/08 13:45:41;;;;;;;15.20;14.35;;;;;;;24.74;100.00;101064.74;1971909;73;31560;-72
2021/09/08 13:51:06;;;;;;;15.15;14.28;;;;;;;24.98;100.00;101050.84;1971842;73;30956;-78
2021/09/08 13:56:31;;;;;;;15.05;14.25;;;;;;;24.97;100.00;101043.50;1971867;73;31531;-70
2021/09/08 14:01:56;;;;;;;14.78;13.88;;;;;;;24.97;100.00;101034.38;1971725;73;31065;-77
2021/09/08 14:07:22;;;;;;;14.80;13.83;;;;;;;25.27;100.00;101035.31;1971852;72;31644;-78
2021/09/08 14:12:47;;;;;;;15.10;14.20;;;;;;;25.42;100.00;101030.67;1971605;73;31384;-78
2021/09/08 14:18:12;;;;;;;14.98;14.18;;;;;;;24.77;100.00;101017.13;1971670;73;31077;-70
2021/09/08 14:23:37;;;;;;;14.95;13.98;;;;;;;24.58;100.00;101005.20;1971742;73;31057;-73
2021/09/08 14:29:21;;;;;;;14.38;13.48;;;;;;;25.64;100.00;100993.45;2016019;71;31863;-78
2021/09/08 14:34:45;;;;;;;15.00;14.07;;;;;;;24.85;100.00;100984.23;1971924;73;32511;-70
2021/09/08 14:40:14;;;;;;;15.05;14.13;;;;;;;24.93;100.00;100973.22;1971689;73;30990;-76
2021/09/08 14:45:38;;;;;;;14.80;14.00;;;;;;;25.65;100.00;100951.00;1971883;73;31032;-70
2021/09/08 14:51:06;;;;;;;14.73;13.83;;;;;;;25.54;100.00;100931.55;1971657;73;30967;-76
2021/09/08 14:56:31;;;;;;;14.28;13.48;;;;;;;26.02;100.00;100933.39;1971818;73;31005;-70
2021/09/08 15:01:57;;;;;;;14.90;13.93;;;;;;;25.53;100.00;100924.18;1971914;73;31929;-70
2021/09/08 15:07:22;;;;;;;15.38;14.47;;;;;;;25.38;100.00;100915.44;1971934;73;31482;-70
2021/09/08 15:13:07;;;;;;;14.85;13.95;;;;;;;25.23;100.00;100916.44;2014777;71;31936;-71
2021/09/08 15:18:39;;;;;;;15.55;14.73;;;;;;;25.32;100.00;100916.16;1971812;73;31072;-70
2021/09/08 15:24:04;;;;;;;14.43;13.62;;;;;;;25.05;100.00;100904.56;1971852;73;31546;-70
2021/09/08 15:29:29;;;;;;;14.50;13.60;;;;;;;25.34;100.00;100902.37;1972032;73;31944;-70
2021/09/08 15:34:54;;;;;;;14.20;13.48;;;;;;;24.81;100.00;100897.26;1971793;73;31102;-76
2021/09/08 15:40:19;;;;;;;13.48;12.78;;;;;;;25.34;100.00;100900.34;1971750;73;30986;-70
2021/09/08 15:45:43;;;;;;;13.72;12.88;;;;;;;25.11;100.00;100892.50;1971792;73;31060;-76
2021/09/08 15:51:08;;;;;;;14.03;13.25;;;;;;;25.48;100.00;100889.78;1971742;73;31936;-76
2021/09/08 15:56:51;;;;;;;14.18;13.38;;;;;;;25.24;100.00;100890.25;2015922;71;30918;-72
2021/09/08 16:02:16;;;;;;;15.75;14.75;;;;;;;25.22;100.00;100889.80;1971848;73;31496;-77
2021/09/08 16:07:41;;;;;;;15.32;14.47;;;;;;;25.29;100.00;100869.39;1971653;73;31097;-80
2021/09/08 16:13:07;;;;;;;15.90;15.00;;;;;;;25.03;100.00;100866.56;1971959;73;31592;-77
2021/09/08 16:18:34;;;;;;;14.47;13.55;;;;;;;25.34;100.00;100869.06;1971769;73;31079;-70
2021/09/08 16:23:59;;;;;;;13.60;12.80;;;;;;;25.37;100.00;100870.34;1971683;73;31053;-76
2021/09/08 16:29:24;;;;;;;14.18;13.38;;;;;;;25.16;100.00;100870.03;1971768;73;31919;-78
2021/09/08 16:34:49;;;;;;;14.20;13.40;;;;;;;25.21;100.00;100875.36;1971843;73;31596;-71
2021/09/08 16:40:16;;;;;;;14.63;13.78;;;;;;;25.24;100.00;100891.08;1971654;73;31065;-72
2021/09/08 16:46:00;;;;;;;14.28;13.48;;;;;;;25.12;100.00;100891.27;2016355;71;31365;-78
2021/09/08 16:51:44;;;;;;;13.65;12.95;;;;;;;24.91;100.00;100900.89;2015966;71;31950;-79
2021/09/08 16:57:15;;;;;;;14.63;13.60;;;;;;;24.95;100.00;100893.23;1971779;73;30982;-71
2021/09/08 17:02:40;;;;;;;14.23;13.43;;;;;;;24.92;100.00;100899.09;1971719;73;31041;-76
2021/09/08 17:08:07;;;;;;;15.05;14.05;;;;;;;24.99;100.00;100895.53;1971923;73;30964;-72
2021/09/08 17:13:31;;;;;;;14.30;13.50;;;;;;;24.95;100.00;100894.66;1971826;73;30975;-72
2021/09/08 17:18:56;;;;;;;13.95;13.20;;;;;;;25.00;100.00;100881.55;1971776;73;31092;-72
2021/09/08 17:24:19;;;;;;;14.78;13.68;;;;;;;24.97;100.00;100883.74;1971934;73;31466;-72
2021/09/08 17:29:44;;;;;;;14.45;13.58;;;;;;;25.03;100.00;100887.09;1971770;73;31948;-72
2021/09/08 17:35:10;;;;;;;15.00;14.00;;;;;;;25.05;100.00;100874.72;1971887;73;30966;-73
2021/09/08 17:40:35;;;;;;;15.03;14.05;;;;;;;24.88;100.00;100881.17;1971684;72;30968;-73
2021/09/08 17:46:00;;;;;;;15.50;14.60;;;;;;;24.67;100.00;100886.47;1971785;73;30987;-73
2021/09/08 17:51:44;;;;;;;15.65;14.43;;;;;;;24.68;100.00;100878.77;2016050;71;30994;-77
2021/09/08 17:57:08;;;;;;;15.28;14.18;;;;;;;24.63;100.00;100877.66;1971823;73;31115;-73
2021/09/08 18:02:36;;;;;;;16.10;14.90;;;;;;;24.59;100.00;100871.92;1971994;73;31559;-72
2021/09/08 18:08:04;;;;;;;15.93;14.83;;;;;;;24.53;100.00;100872.01;1971739;73;31084;-72
2021/09/08 18:13:28;;;;;;;15.45;14.47;;;;;;;24.48;100.00;100864.63;1971981;73;31539;-73
2021/09/08 18:18:54;;;;;;;17.30;15.95;;;;;;;24.21;100.00;100868.61;1971911;73;31065;-73
2021/09/08 18:24:18;;;;;;;16.90;15.83;;;;;;;23.96;100.00;100871.55;1971744;73;31181;-73
2021/09/08 18:30:05;;;;;;;18.95;17.55;;;;;;;23.81;100.00;100868.18;2016065;71;31043;-73
2021/09/08 18:35:29;;;;;;;18.73;17.62;;;;;;;23.86;100.00;100869.30;1971887;73;31466;-72
2021/09/08 18:40:54;;;;;;;20.20;18.75;;;;;;;23.88;100.00;100898.92;1971787;73;31196;-72
2021/09/08 18:46:18;;;;;;;21.52;19.98;;;;;;;24.04;100.00;100915.89;1971919;73;31485;-72
2021/09/08 18:51:43;;;;;;;18.82;17.50;;;;;;;24.30;100.00;100920.89;1971736;73;31144;-73
2021/09/08 18:57:28;;;;;;;17.30;16.20;;;;;;;24.48;100.00;100926.28;2013228;71;31395;-73
2021/09/08 19:02:53;;;;;;;18.02;16.65;;;;;;;24.43;100.00;100933.09;1971848;73;30992;-72
2021/09/08 19:08:18;;;;;;;24.52;22.87;;;;;;;24.15;100.00;100935.95;1971756;73;31025;-72
2021/09/08 19:13:42;;;;;;;24.52;23.00;;;;;;;23.77;100.00;100931.11;1971858;72;31013;-73
2021/09/08 19:19:09;;;;;;;29.20;27.30;;;;;;;23.22;100.00;100934.50;1971740;73;30961;-74
2021/09/08 19:24:32;;;;;;;32.42;30.30;;;;;;;23.15;100.00;100940.81;1971784;73;31041;-74
2021/09/08 19:29:57;;;;;;;35.08;32.53;;;;;;;23.07;100.00;100943.25;1972032;73;31545;-73
2021/09/08 19:35:22;;;;;;;39.73;36.93;;;;;;;22.95;100.00;100949.61;1971967;73;31097;-74
2021/09/08 19:40:47;;;;;;;48.55;45.23;;;;;;;22.78;100.00;100965.56;1971764;73;30960;-73
2021/09/08 19:46:12;;;;;;;46.33;43.35;;;;;;;22.81;100.00;100993.97;1972017;72;31451;-75
2021/09/08 19:51:37;;;;;;;47.53;44.33;;;;;;;22.21;100.00;101001.58;1972155;73;31545;-73
2021/09/08 19:57:02;;;;;;;48.02;44.73;;;;;;;22.11;100.00;101023.34;1972009;73;31528;-74
2021/09/08 20:02:28;;;;;;;48.13;44.70;;;;;;;22.13;100.00;101017.30;1971895;73;30961;-71
2021/09/08 20:07:52;;;;;;;50.88;47.17;;;;;;;21.71;100.00;101023.28;1971848;73;30976;-78
2021/09/08 20:13:18;;;;;;;51.85;47.95;;;;;;;21.47;100.00;101021.91;1972047;73;31467;-74
2021/09/08 20:18:43;;;;;;;52.70;48.60;;;;;;;21.29;100.00;101016.26;1971768;73;30969;-74
2021/09/08 20:24:13;;;;;;;56.47;52.03;;;;;;;21.05;100.00;101008.55;1971758;73;31060;-73
2021/09/08 20:29:38;;;;;;;55.85;51.40;;;;;;;20.81;100.00;100986.77;1971787;73;30976;-72
2021/09/08 20:35:03;;;;;;;54.45;50.15;;;;;;;20.95;100.00;100952.55;1971900;73;30952;-74
2021/09/08 20:40:29;;;;;;;52.35;48.25;;;;;;;20.82;100.00;100953.13;1971928;73;31118;-73
2021/09/08 20:45:54;;;;;;;55.63;51.05;;;;;;;20.84;100.00;100983.82;1971761;73;30950;-73
2021/09/08 20:51:19;;;;;;;57.40;52.60;;;;;;;21.01;100.00;100984.22;1971881;73;30954;-72
2021/09/08 20:56:43;;;;;;;57.75;53.00;;;;;;;20.74;100.00;100991.36;1972056;73;31003;-71
2021/09/08 21:02:09;;;;;;;57.87;53.20;;;;;;;20.71;100.00;100988.63;1971967;73;30947;-74
2021/09/08 21:07:40;;;;;;;59.60;54.83;;;;;;;20.72;100.00;100978.16;1971932;73;31043;-73
2021/09/08 21:13:05;;;;;;;61.30;56.33;;;;;;;20.48;100.00;100973.89;1971950;73;31138;-71
2021/09/08 21:18:30;;;;;;;61.68;56.83;;;;;;;20.53;100.00;100982.14;1971842;73;31029;-73
2021/09/08 21:23:55;;;;;;;66.30;61.47;;;;;;;20.46;100.00;100968.58;1971800;73;31059;-74
2021/09/08 21:29:20;;;;;;;63.23;58.63;;;;;;;20.29;100.00;100951.26;1971779;73;30954;-74
2021/09/08 21:34:46;;;;;;;65.50;60.53;;;;;;;20.41;100.00;100958.92;1971774;73;30955;-72
2021/09/08 21:40:13;;;;;;;63.50;58.63;;;;;;;20.41;100.00;100954.69;1971802;73;30957;-73
2021/09/08 21:45:39;;;;;;;64.17;59.27;;;;;;;20.17;100.00;100944.72;1972015;73;31020;-72
2021/09/08 21:51:05;;;;;;;65.83;60.57;;;;;;;20.08;100.00;100940.58;1971962;73;30957;-73
2021/09/08 21:56:29;;;;;;;68.57;63.53;;;;;;;19.89;100.00;100931.25;1971818;73;31027;-75
2021/09/08 22:01:54;;;;;;;68.37;63.07;;;;;;;19.80;100.00;100916.41;1971973;73;31559;-72
2021/09/08 22:07:20;;;;;;;58.43;53.73;;;;;;;19.95;100.00;100933.24;1972019;73;31456;-72
2021/09/08 22:12:46;;;;;;;61.40;56.60;;;;;;;19.99;100.00;100927.15;1971948;73;31486;-74
2021/09/08 22:18:14;;;;;;;62.65;57.88;;;;;;;19.97;100.00;100911.18;1971733;73;30933;-72
2021/09/08 22:23:39;;;;;;;66.00;60.77;;;;;;;20.19;100.00;100926.30;1971712;73;31063;-72
2021/09/08 22:29:04;;;;;;;63.90;58.77;;;;;;;20.05;100.00;100924.95;1971874;73;31717;-73
2021/09/08 22:34:28;;;;;;;68.10;62.70;;;;;;;20.02;100.00;100934.94;1971770;73;31044;-74
2021/09/08 22:40:15;;;;;;;66.17;60.87;;;;;;;20.10;100.00;100918.52;2015966;71;30880;-75
2021/09/08 22:45:39;;;;;;;64.80;59.43;;;;;;;19.90;100.00;100938.51;1971944;73;31448;-74
2021/09/08 22:51:04;;;;;;;71.30;65.67;;;;;;;20.16;100.00;100937.42;1971754;73;31018;-73
2021/09/08 22:56:29;;;;;;;63.13;58.30;;;;;;;20.11;100.00;100942.70;1972002;73;30938;-73
2021/09/08 23:01:53;;;;;;;65.33;59.90;;;;;;;20.03;100.00;100943.61;1971735;73;30942;-72
2021/09/08 23:07:18;;;;;;;65.20;59.60;;;;;;;20.16;100.00;100959.99;1971940;73;31453;-73
2021/09/08 23:12:45;;;;;;;66.53;60.93;;;;;;;20.17;100.00;100969.53;1971926;73;31106;-72
2021/09/08 23:18:10;;;;;;;68.87;63.27;;;;;;;20.17;100.00;100970.94;1971752;73;31166;-72
2021/09/08 23:23:35;;;;;;;67.10;61.13;;;;;;;19.94;100.00;100964.84;1971727;73;30961;-73
2021/09/08 23:29:00;;;;;;;65.83;60.03;;;;;;;20.06;100.00;100965.50;1971978;73;31405;-73